Time;durP1;ratioP1;P1;durP2;ratioP2;P2;SDS_P1;SDS_P2;PMS_P1;PMS_P2;Temp;Humidity;BMP_temperature;BMP_pressure;BME280_temperature;BME280_humidity;BME280_pressure;Samples;Min_cycle;Max_cycle;Signal;HPM_P1;HPM_P2
2021/09/12 00:00:11;;;;;;;12.53;6.13;;;18.80;96.30;;;;;;5095298;28;20176;-63
2021/09/12 00:02:37;;;;;;;9.23;6.77;;;18.80;96.20;;;;;;5093865;28;20700;-64
2021/09/12 00:05:04;;;;;;;13.97;6.63;;;18.80;96.30;;;;;;5094984;28;20453;-62
2021/09/12 00:07:30;;;;;;;7.63;6.23;;;18.80;96.30;;;;;;5095181;28;20204;-62
2021/09/12 00:09:55;;;;;;;8.83;6.90;;;18.80;96.30;;;;;;5093948;28;20406;-63
2021/09/12 00:12:21;;;;;;;9.90;7.27;;;18.80;96.40;;;;;;5093895;28;20676;-61
2021/09/12 00:14:47;;;;;;;10.90;6.73;;;18.70;96.40;;;;;;5093424;28;20172;-64
2021/09/12 00:17:12;;;;;;;11.80;6.77;;;18.70;96.30;;;;;;5095011;28;20212;-62
2021/09/12 00:19:38;;;;;;;10.00;7.63;;;18.70;96.40;;;;;;5094799;28;20536;-62
2021/09/12 00:22:04;;;;;;;8.20;6.87;;;18.70;96.40;;;;;;5094664;28;20564;-62
2021/09/12 00:24:29;;;;;;;7.50;6.07;;;18.70;96.50;;;;;;5094614;28;20696;-64
2021/09/12 00:26:55;;;;;;;7.40;6.20;;;18.60;96.50;;;;;;5094715;28;20296;-62
2021/09/12 00:29:21;;;;;;;11.20;6.13;;;18.70;96.50;;;;;;5093483;28;20172;-62
2021/09/12 00:31:47;;;;;;;9.03;6.70;;;18.60;96.50;;;;;;5094604;28;20204;-61
2021/09/12 00:34:13;;;;;;;9.50;6.40;;;18.60;96.60;;;;;;5093381;28;20196;-62
2021/09/12 00:36:39;;;;;;;7.30;6.57;;;18.60;96.60;;;;;;5094461;28;20952;-61
2021/09/12 00:39:04;;;;;;;9.57;7.23;;;18.60;96.60;;;;;;5094644;28;20203;-62
2021/09/12 00:41:37;;;;;;;8.67;6.97;;;18.50;96.60;;;;;;5094484;28;20936;-62
2021/09/12 00:44:04;;;;;;;7.20;6.50;;;18.50;96.60;;;;;;5093683;28;20179;-63
2021/09/12 00:46:30;;;;;;;7.43;6.30;;;18.50;96.70;;;;;;5094049;28;20499;-61
2021/09/12 00:48:55;;;;;;;8.53;6.20;;;18.40;96.70;;;;;;5093146;28;20472;-63
2021/09/12 00:51:21;;;;;;;7.80;6.87;;;18.40;96.70;;;;;;5094218;28;20195;-61
2021/09/12 00:53:51;;;;;;;8.07;6.60;;;18.40;96.80;;;;;;5094301;28;20168;-63
2021/09/12 00:56:17;;;;;;;6.87;6.27;;;18.30;96.80;;;;;;5093450;28;20609;-62
2021/09/12 00:58:43;;;;;;;10.83;6.87;;;18.30;96.80;;;;;;5093971;28;20421;-62
2021/09/12 01:01:09;;;;;;;8.50;6.60;;;18.30;96.90;;;;;;5092895;28;20445;-64
2021/09/12 01:03:35;;;;;;;9.33;6.90;;;18.30;97.00;;;;;;5094640;28;20772;-63
2021/09/12 01:06:01;;;;;;;7.03;6.30;;;18.30;97.00;;;;;;5092351;28;20274;-62
2021/09/12 01:08:27;;;;;;;8.13;6.70;;;18.20;97.00;;;;;;5092506;28;20176;-62
2021/09/12 01:10:53;;;;;;;7.27;6.17;;;18.20;97.00;;;;;;5091850;28;20405;-62
2021/09/12 01:13:18;;;;;;;9.80;8.20;;;18.20;97.10;;;;;;5092292;28;20184;-61
2021/09/12 01:15:45;;;;;;;7.67;6.00;;;18.20;97.00;;;;;;5090722;28;20424;-62
2021/09/12 01:18:11;;;;;;;7.80;6.10;;;18.20;96.90;;;;;;5092281;28;20161;-62
2021/09/12 01:20:37;;;;;;;6.90;6.20;;;18.20;96.90;;;;;;5092639;28;20463;-62
2021/09/12 01:23:06;;;;;;;7.37;6.53;;;18.10;96.80;;;;;;5094152;28;20938;-61
2021/09/12 01:25:33;;;;;;;10.73;8.47;;;18.10;96.90;;;;;;5093678;28;20495;-63
2021/09/12 01:28:01;;;;;;;9.27;6.73;;;18.10;97.00;;;;;;5094041;28;20424;-62
2021/09/12 01:30:26;;;;;;;10.10;7.00;;;18.10;97.00;;;;;;5093832;28;20454;-62
2021/09/12 01:32:52;;;;;;;8.57;6.60;;;18.10;97.10;;;;;;5094113;28;20797;-62
2021/09/12 01:35:17;;;;;;;10.67;7.43;;;18.00;97.40;;;;;;5092470;28;20630;-63
2021/09/12 01:37:43;;;;;;;9.10;7.60;;;18.00;97.10;;;;;;5093942;28;20197;-63
2021/09/12 01:40:09;;;;;;;8.70;7.03;;;18.00;97.10;;;;;;5093738;28;20173;-61
2021/09/12 01:42:35;;;;;;;9.83;7.23;;;17.90;97.20;;;;;;5093998;28;20653;-61
2021/09/12 01:45:01;;;;;;;11.30;6.93;;;17.90;97.30;;;;;;5093598;28;20535;-62
2021/09/12 01:47:26;;;;;;;7.20;6.33;;;17.90;97.30;;;;;;5093846;28;20200;-62
2021/09/12 01:49:52;;;;;;;7.23;6.43;;;17.90;97.30;;;;;;5093609;28;20172;-63
2021/09/12 01:52:17;;;;;;;8.40;6.27;;;17.90;97.30;;;;;;5093739;28;20543;-63
2021/09/12 01:54:43;;;;;;;10.10;7.13;;;17.80;97.30;;;;;;5093672;28;20634;-62
2021/09/12 01:57:09;;;;;;;9.20;7.00;;;17.80;97.30;;;;;;5093722;28;20196;-62
2021/09/12 01:59:35;;;;;;;12.90;7.23;;;17.80;97.40;;;;;;5092294;28;20297;-62
2021/09/12 02:02:00;;;;;;;6.57;5.83;;;17.70;97.40;;;;;;5093607;28;20211;-62
2021/09/12 02:04:26;;;;;;;8.63;7.13;;;17.70;97.40;;;;;;5093601;28;20393;-63
2021/09/12 02:06:51;;;;;;;11.27;6.80;;;17.70;97.50;;;;;;5093441;28;20299;-61
2021/09/12 02:09:17;;;;;;;12.27;7.80;;;17.60;97.50;;;;;;5093520;28;20226;-63
2021/09/12 02:11:43;;;;;;;12.40;7.50;;;17.60;97.50;;;;;;5093303;28;20207;-61
2021/09/12 02:14:08;;;;;;;7.50;6.40;;;17.60;97.60;;;;;;5093470;28;20580;-63
2021/09/12 02:16:34;;;;;;;9.00;6.93;;;17.50;97.60;;;;;;5093453;28;20216;-62
2021/09/12 02:19:00;;;;;;;9.13;6.90;;;17.50;97.60;;;;;;5093388;28;20251;-62
2021/09/12 02:21:25;;;;;;;10.30;7.00;;;17.50;97.70;;;;;;5092029;28;20204;-62
2021/09/12 02:23:51;;;;;;;7.60;6.83;;;17.50;97.70;;;;;;5093269;28;20164;-62
2021/09/12 02:26:17;;;;;;;8.43;6.87;;;17.50;97.70;;;;;;5093005;28;20235;-62
2021/09/12 02:28:42;;;;;;;8.93;7.70;;;17.40;97.70;;;;;;5093229;28;20217;-62
2021/09/12 02:31:08;;;;;;;11.20;6.53;;;17.40;97.70;;;;;;5093274;28;20192;-62
2021/09/12 02:33:34;;;;;;;16.90;7.23;;;17.40;97.70;;;;;;5094280;28;20185;-62
2021/09/12 02:36:01;;;;;;;7.43;6.63;;;17.40;97.70;;;;;;5096608;28;20179;-62
2021/09/12 02:38:27;;;;;;;8.63;7.20;;;17.40;97.70;;;;;;5095590;28;20173;-62
2021/09/12 02:40:53;;;;;;;8.17;6.87;;;17.40;97.70;;;;;;5094610;28;20764;-61
2021/09/12 02:43:18;;;;;;;9.13;7.20;;;17.40;97.70;;;;;;5096617;28;20180;-63
2021/09/12 02:45:44;;;;;;;8.40;6.40;;;17.40;97.70;;;;;;5095491;28;20598;-62
2021/09/12 02:48:09;;;;;;;7.10;6.50;;;17.30;97.70;;;;;;5096578;28;20183;-61
2021/09/12 02:50:35;;;;;;;7.47;6.60;;;17.30;97.70;;;;;;5095333;28;20229;-62
2021/09/12 02:53:00;;;;;;;10.00;7.30;;;17.30;97.70;;;;;;5093940;28;20200;-61
2021/09/12 02:55:26;;;;;;;8.17;6.83;;;17.30;97.70;;;;;;5094303;28;20181;-62
2021/09/12 02:57:52;;;;;;;9.30;7.50;;;17.30;97.70;;;;;;5094383;28;20291;-61
2021/09/12 03:00:18;;;;;;;8.10;7.27;;;17.30;97.70;;;;;;5094294;28;20298;-63
2021/09/12 03:02:43;;;;;;;10.50;6.80;;;17.30;97.70;;;;;;5094072;28;20203;-62
2021/09/12 03:05:09;;;;;;;7.70;6.90;;;17.20;97.80;;;;;;5092808;28;20465;-61
2021/09/12 03:07:35;;;;;;;11.30;6.40;;;17.20;97.80;;;;;;5094747;28;20280;-62
2021/09/12 03:10:00;;;;;;;7.50;6.80;;;17.20;97.80;;;;;;5096182;28;20176;-62
2021/09/12 03:12:26;;;;;;;9.40;7.33;;;17.20;97.80;;;;;;5095390;28;20649;-61
2021/09/12 03:14:51;;;;;;;8.00;7.17;;;17.20;97.80;;;;;;5094622;28;20179;-64
2021/09/12 03:17:17;;;;;;;8.60;7.13;;;17.20;97.90;;;;;;5094066;28;20196;-61
2021/09/12 03:19:43;;;;;;;7.60;6.83;;;17.10;97.90;;;;;;5093873;28;20598;-62
2021/09/12 03:22:09;;;;;;;11.13;7.57;;;17.10;97.90;;;;;;5093978;28;20238;-62
2021/09/12 03:24:34;;;;;;;7.73;6.53;;;17.10;98.00;;;;;;5093687;28;20405;-62
2021/09/12 03:27:00;;;;;;;10.50;7.13;;;17.10;98.00;;;;;;5093714;28;20592;-62
2021/09/12 03:29:25;;;;;;;11.80;7.40;;;17.00;98.00;;;;;;5093733;28;20172;-62
2021/09/12 03:31:51;;;;;;;8.67;7.77;;;17.00;98.10;;;;;;5095321;28;20196;-61
2021/09/12 03:34:17;;;;;;;10.43;9.40;;;17.00;98.10;;;;;;5095805;28;20169;-63
2021/09/12 03:36:42;;;;;;;7.90;7.10;;;17.00;98.10;;;;;;5095747;28;20294;-63
2021/09/12 03:39:08;;;;;;;9.13;7.60;;;17.00;98.10;;;;;;5095686;28;20161;-63
2021/09/12 03:41:33;;;;;;;11.83;7.27;;;17.00;98.10;;;;;;5094186;28;20265;-62
2021/09/12 03:44:00;;;;;;;9.00;7.70;;;17.00;98.10;;;;;;5094304;28;20265;-63
2021/09/12 03:46:26;;;;;;;8.73;7.90;;;17.00;98.10;;;;;;5095455;28;20227;-62
2021/09/12 03:48:51;;;;;;;10.43;8.20;;;17.00;98.30;;;;;;5095488;28;20398;-62
2021/09/12 03:51:17;;;;;;;9.50;7.10;;;17.00;98.30;;;;;;5095212;28;20653;-62
2021/09/12 03:53:42;;;;;;;9.60;7.20;;;16.90;98.40;;;;;;5095432;28;20640;-63
2021/09/12 03:56:08;;;;;;;7.90;7.20;;;16.90;98.50;;;;;;5095436;28;20198;-62
2021/09/12 03:58:33;;;;;;;10.30;7.80;;;16.90;98.50;;;;;;5094335;28;20196;-62
2021/09/12 04:00:59;;;;;;;8.30;7.50;;;16.90;99.00;;;;;;5095145;28;20178;-61
2021/09/12 04:03:25;;;;;;;10.97;7.67;;;16.80;98.60;;;;;;5095749;28;20194;-62
2021/09/12 04:05:50;;;;;;;11.70;8.33;;;16.80;98.70;;;;;;5093807;28;20210;-61
2021/09/12 04:08:16;;;;;;;8.80;7.50;;;16.80;98.60;;;;;;5095084;28;20268;-61
2021/09/12 04:10:42;;;;;;;10.00;8.30;;;16.80;98.70;;;;;;5094844;28;20181;-61
2021/09/12 04:13:08;;;;;;;12.53;8.67;;;16.80;98.70;;;;;;5095437;28;20417;-62
2021/09/12 04:15:33;;;;;;;8.83;7.20;;;16.80;98.70;;;;;;5093834;28;20173;-64
2021/09/12 04:17:59;;;;;;;10.70;7.60;;;16.80;98.70;;;;;;5095201;28;20208;-62
2021/09/12 04:20:25;;;;;;;7.63;6.90;;;16.80;98.60;;;;;;5093695;28;20176;-61
2021/09/12 04:22:50;;;;;;;8.70;7.83;;;16.80;98.70;;;;;;5095161;28;20200;-62
2021/09/12 04:25:16;;;;;;;8.43;7.30;;;16.80;98.70;;;;;;5093301;28;20227;-62
2021/09/12 04:27:41;;;;;;;9.67;8.33;;;16.70;98.70;;;;;;5095010;28;20208;-62
2021/09/12 04:30:09;;;;;;;8.93;8.03;;;16.70;98.80;;;;;;5094726;28;20191;-62
2021/09/12 04:32:35;;;;;;;11.30;8.13;;;16.70;98.80;;;;;;5094902;28;20711;-63
2021/09/12 04:35:01;;;;;;;14.07;9.87;;;16.70;98.80;;;;;;5094634;28;20397;-63
2021/09/12 04:37:26;;;;;;;9.17;7.80;;;16.70;98.90;;;;;;5094737;28;20527;-61
2021/09/12 04:39:52;;;;;;;8.93;7.17;;;16.70;98.80;;;;;;5094591;28;20515;-62
2021/09/12 04:42:17;;;;;;;11.57;8.37;;;16.60;98.90;;;;;;5093191;28;20643;-62
2021/09/12 04:44:43;;;;;;;8.83;7.93;;;16.60;98.80;;;;;;5094390;28;20222;-63
2021/09/12 04:47:09;;;;;;;8.67;7.60;;;16.60;98.80;;;;;;5094426;28;20227;-62
2021/09/12 04:49:34;;;;;;;8.77;7.87;;;16.50;98.80;;;;;;5094460;28;20172;-62
2021/09/12 04:52:00;;;;;;;8.97;7.57;;;16.50;98.80;;;;;;5094404;28;20200;-62
2021/09/12 04:54:25;;;;;;;9.10;7.97;;;16.50;98.80;;;;;;5094308;28;20176;-62
2021/09/12 04:56:51;;;;;;;9.40;7.63;;;16.50;98.80;;;;;;5093864;28;20196;-63
2021/09/12 04:59:17;;;;;;;14.10;8.93;;;16.50;98.90;;;;;;5094253;28;20218;-62
2021/09/12 05:01:42;;;;;;;10.50;8.50;;;16.50;98.90;;;;;;5092840;28;20223;-62
2021/09/12 05:04:08;;;;;;;12.67;8.50;;;16.50;99.00;;;;;;5094141;28;20168;-63
2021/09/12 05:06:33;;;;;;;12.90;8.53;;;16.50;99.00;;;;;;5094068;28;20305;-61
2021/09/12 05:08:59;;;;;;;9.73;7.80;;;16.50;99.10;;;;;;5094121;28;20512;-63
2021/09/12 05:11:25;;;;;;;11.70;8.20;;;16.50;99.20;;;;;;5094006;28;20590;-62
2021/09/12 05:13:50;;;;;;;12.10;8.43;;;16.50;99.30;;;;;;5093991;28;20626;-62
2021/09/12 05:16:16;;;;;;;13.43;8.60;;;16.50;99.30;;;;;;5093906;28;20213;-63
2021/09/12 05:18:42;;;;;;;9.20;8.17;;;16.50;99.40;;;;;;5093885;28;20237;-63
2021/09/12 05:21:07;;;;;;;10.90;9.80;;;16.60;99.50;;;;;;5093905;28;20200;-62
2021/09/12 05:23:33;;;;;;;12.60;8.67;;;16.60;99.50;;;;;;5094428;28;20629;-61
2021/09/12 05:25:58;;;;;;;9.70;8.70;;;16.60;99.60;;;;;;5093536;28;20236;-64
2021/09/12 05:28:24;;;;;;;11.30;8.57;;;16.70;99.70;;;;;;5094439;28;20546;-62
2021/09/12 05:30:50;;;;;;;10.10;8.20;;;16.70;99.70;;;;;;5093794;28;20243;-62
2021/09/12 05:33:16;;;;;;;11.10;8.70;;;16.80;99.80;;;;;;5094309;28;20176;-62
2021/09/12 05:35:41;;;;;;;12.33;8.63;;;16.80;99.90;;;;;;5093701;28;20225;-62
2021/09/12 05:38:07;;;;;;;8.90;7.97;;;16.90;99.90;;;;;;5094184;28;20899;-62
2021/09/12 05:40:33;;;;;;;11.27;8.43;;;16.90;99.90;;;;;;5093726;28;20168;-62
2021/09/12 05:42:59;;;;;;;11.00;9.30;;;16.90;99.90;;;;;;5092267;28;20453;-62
2021/09/12 05:45:25;;;;;;;10.37;8.60;;;17.00;99.90;;;;;;5092314;28;20467;-63
2021/09/12 05:47:51;;;;;;;10.23;9.13;;;17.10;99.90;;;;;;5093992;28;20232;-62
2021/09/12 05:50:16;;;;;;;10.30;8.73;;;17.10;99.90;;;;;;5093672;28;20395;-63
2021/09/12 05:52:42;;;;;;;11.20;8.50;;;17.20;99.90;;;;;;5093886;28;20550;-62
2021/09/12 05:55:08;;;;;;;11.13;8.93;;;17.20;99.90;;;;;;5093697;28;20176;-62
2021/09/12 05:57:34;;;;;;;10.70;9.00;;;17.30;99.90;;;;;;5093855;28;20200;-62
2021/09/12 05:59:59;;;;;;;13.83;9.57;;;17.30;99.90;;;;;;5093566;28;20404;-62
2021/09/12 06:02:25;;;;;;;12.17;10.00;;;17.40;99.90;;;;;;5093819;28;20227;-62
2021/09/12 06:04:50;;;;;;;16.27;9.67;;;17.50;99.90;;;;;;5092212;28;20169;-62
2021/09/12 06:07:16;;;;;;;11.50;9.13;;;17.50;99.90;;;;;;5093586;28;20304;-62
2021/09/12 06:09:42;;;;;;;15.23;9.23;;;17.60;99.90;;;;;;5096173;28;20263;-62
2021/09/12 06:12:09;;;;;;;13.73;9.20;;;17.60;99.90;;;;;;5097495;28;20979;-62
2021/09/12 06:14:35;;;;;;;18.30;10.83;;;17.70;99.90;;;;;;5097448;28;20630;-63
2021/09/12 06:17:07;;;;;;;12.63;8.87;;;17.80;99.90;;;;;;5097336;28;20498;-62
2021/09/12 06:19:34;;;;;;;12.73;9.53;;;17.80;99.90;;;;;;5096030;28;20413;-63
2021/09/12 06:22:00;;;;;;;12.77;9.37;;;17.90;99.90;;;;;;5097005;28;20543;-63
2021/09/12 06:24:26;;;;;;;12.17;8.63;;;18.00;99.90;;;;;;5096983;28;20393;-62
2021/09/12 06:26:52;;;;;;;9.60;8.10;;;18.00;99.90;;;;;;5097036;28;20487;-62
2021/09/12 06:29:18;;;;;;;10.10;9.07;;;18.10;99.90;;;;;;5097111;28;20176;-62
2021/09/12 06:31:43;;;;;;;12.03;9.17;;;18.20;99.90;;;;;;5097059;28;20200;-62
2021/09/12 06:34:09;;;;;;;10.33;8.40;;;18.30;99.90;;;;;;5095671;28;20176;-64
2021/09/12 06:36:34;;;;;;;15.33;9.27;;;18.40;99.90;;;;;;5096711;28;20265;-62
2021/09/12 06:39:00;;;;;;;9.87;8.27;;;18.50;99.90;;;;;;5096777;28;20273;-62
2021/09/12 06:41:26;;;;;;;11.70;8.50;;;18.60;99.90;;;;;;5096828;28;20681;-62
2021/09/12 06:43:51;;;;;;;13.93;8.40;;;18.70;99.90;;;;;;5095442;28;20180;-62
2021/09/12 06:46:17;;;;;;;11.23;9.13;;;18.70;99.90;;;;;;5095161;28;20212;-62
2021/09/12 06:48:43;;;;;;;10.70;8.57;;;18.90;99.90;;;;;;5096651;28;20226;-62
2021/09/12 06:51:08;;;;;;;9.93;7.90;;;19.00;99.90;;;;;;5096643;28;20200;-62
2021/09/12 06:53:34;;;;;;;10.63;8.50;;;19.10;99.90;;;;;;5097204;28;20222;-62
2021/09/12 06:56:00;;;;;;;13.53;8.60;;;19.20;99.90;;;;;;5096453;28;20634;-62
2021/09/12 06:58:25;;;;;;;9.33;8.30;;;19.30;99.90;;;;;;5095427;28;20181;-62
2021/09/12 07:00:51;;;;;;;11.80;7.80;;;19.40;99.90;;;;;;5096333;28;20178;-62
2021/09/12 07:03:16;;;;;;;10.60;8.70;;;19.50;99.70;;;;;;5096238;28;20178;-62
2021/09/12 07:05:42;;;;;;;9.20;7.53;;;19.60;99.50;;;;;;5094888;28;20217;-62
2021/09/12 07:08:08;;;;;;;11.17;7.87;;;19.70;99.60;;;;;;5096694;28;20181;-62
2021/09/12 07:10:33;;;;;;;9.50;7.50;;;19.80;99.60;;;;;;5096317;28;20653;-63
2021/09/12 07:12:59;;;;;;;8.80;7.40;;;19.90;99.50;;;;;;5094995;28;20205;-62
2021/09/12 07:15:25;;;;;;;7.90;6.57;;;20.00;99.50;;;;;;5096198;28;20196;-63
2021/09/12 07:17:50;;;;;;;7.60;6.90;;;20.10;99.40;;;;;;5096010;28;20208;-62
2021/09/12 07:20:16;;;;;;;9.30;7.37;;;20.20;99.30;;;;;;5095801;28;20175;-63
2021/09/12 07:22:42;;;;;;;9.63;7.70;;;20.30;99.20;;;;;;5096223;28;20198;-62
2021/09/12 07:25:08;;;;;;;9.17;7.13;;;20.40;99.00;;;;;;5092583;28;20285;-62
2021/09/12 07:27:33;;;;;;;9.83;8.07;;;20.50;99.00;;;;;;5094478;28;20208;-62
2021/09/12 07:29:59;;;;;;;8.13;7.30;;;20.60;98.90;;;;;;5095564;28;20498;-63
2021/09/12 07:32:24;;;;;;;13.80;7.67;;;20.70;98.80;;;;;;5094658;28;20203;-62
2021/09/12 07:34:50;;;;;;;8.07;7.27;;;20.80;98.80;;;;;;5093616;28;20259;-63
2021/09/12 07:37:16;;;;;;;7.63;6.90;;;20.90;98.80;;;;;;5092199;28;20203;-62
2021/09/12 07:39:41;;;;;;;7.60;6.90;;;21.00;98.50;;;;;;5093879;28;20637;-62
2021/09/12 07:42:07;;;;;;;8.13;7.07;;;21.10;98.30;;;;;;5093611;28;20281;-62
2021/09/12 07:44:33;;;;;;;9.03;7.90;;;21.10;98.10;;;;;;5093548;28;20173;-62
2021/09/12 07:46:58;;;;;;;10.20;7.63;;;21.20;97.90;;;;;;5093245;28;20224;-62
2021/09/12 07:49:24;;;;;;;11.63;7.53;;;21.30;98.00;;;;;;5093410;28;20182;-63
2021/09/12 07:51:49;;;;;;;8.57;7.63;;;21.40;98.40;;;;;;5095429;28;20207;-62
2021/09/12 07:54:15;;;;;;;8.60;7.67;;;21.50;98.20;;;;;;5095493;28;20180;-62
2021/09/12 07:56:41;;;;;;;8.97;7.80;;;21.60;98.10;;;;;;5093885;28;20208;-62
2021/09/12 07:59:06;;;;;;;9.17;7.40;;;21.70;97.80;;;;;;5094041;28;20183;-64
2021/09/12 08:01:32;;;;;;;9.83;8.40;;;21.80;97.70;;;;;;5095184;28;20188;-62
2021/09/12 08:03:57;;;;;;;14.17;8.40;;;21.90;97.50;;;;;;5095197;28;20173;-63
2021/09/12 08:06:23;;;;;;;9.73;8.73;;;21.90;97.40;;;;;;5093817;28;20216;-62
2021/09/12 08:08:49;;;;;;;13.33;11.17;;;22.00;97.10;;;;;;5095021;28;20180;-63
2021/09/12 08:11:15;;;;;;;15.77;12.63;;;22.10;97.20;;;;;;5094892;28;20197;-64
2021/09/12 08:13:41;;;;;;;16.57;11.27;;;22.20;96.90;;;;;;5093725;28;20827;-65
2021/09/12 08:16:07;;;;;;;14.30;10.73;;;22.30;96.30;;;;;;5094981;28;20197;-62
2021/09/12 08:18:33;;;;;;;12.97;8.10;;;22.40;96.30;;;;;;5095488;28;20649;-64
2021/09/12 08:20:59;;;;;;;9.53;7.57;;;22.60;96.30;;;;;;5094880;28;20831;-62
2021/09/12 08:23:25;;;;;;;10.00;7.47;;;22.70;95.80;;;;;;5095357;28;20417;-62
2021/09/12 08:25:50;;;;;;;7.13;6.53;;;22.90;95.80;;;;;;5094542;28;20590;-63
2021/09/12 08:28:16;;;;;;;8.87;7.30;;;23.10;95.10;;;;;;5095083;28;20179;-62
2021/09/12 08:30:41;;;;;;;7.00;6.30;;;23.30;94.80;;;;;;5091376;28;20294;-62
2021/09/12 08:33:16;;;;;;;8.83;6.90;;;23.50;94.90;;;;;;5091140;28;20230;-62
2021/09/12 08:35:42;;;;;;;8.03;7.23;;;23.70;94.50;;;;;;5093273;28;20168;-63
2021/09/12 08:38:08;;;;;;;8.60;6.83;;;23.80;94.10;;;;;;5092366;28;20753;-62
2021/09/12 08:40:34;;;;;;;7.00;6.30;;;24.00;93.70;;;;;;5092162;28;20412;-62
2021/09/12 08:43:00;;;;;;;7.47;6.40;;;24.20;93.90;;;;;;5094124;28;20198;-61
2021/09/12 08:45:27;;;;;;;9.93;6.43;;;24.30;94.00;;;;;;5090892;28;20469;-62
2021/09/12 08:47:53;;;;;;;7.00;6.30;;;24.50;93.70;;;;;;5091432;28;20453;-62
2021/09/12 08:52:38;;;;;;;6.90;6.03;;;24.70;92.90;;;;;;5132472;27;20649;-62
2021/09/12 08:55:04;;;;;;;10.53;6.90;;;24.80;93.10;;;;;;5128936;28;20424;-63
2021/09/12 08:57:30;;;;;;;8.27;6.53;;;24.80;92.80;;;;;;5101128;28;20208;-63
2021/09/12 08:59:55;;;;;;;8.70;6.83;;;24.90;92.60;;;;;;5106727;28;20454;-63
2021/09/12 09:02:26;;;;;;;6.20;5.57;;;24.90;92.40;;;;;;5110577;28;20849;-63
2021/09/12 09:05:01;;;;;;;7.50;6.07;;;24.90;92.30;;;;;;5108455;28;20269;-64
2021/09/12 09:07:30;;;;;;;7.43;6.27;;;24.90;92.10;;;;;;5104586;28;20537;-62
2021/09/12 09:09:57;;;;;;;7.20;5.60;;;24.90;92.10;;;;;;5110664;28;20492;-63
2021/09/12 09:12:30;;;;;;;6.00;5.50;;;24.90;92.00;;;;;;5111594;28;20482;-64
2021/09/12 09:15:13;;;;;;;6.77;6.07;;;24.90;92.10;;;;;;5109772;28;20518;-62
2021/09/12 09:17:54;;;;;;;8.03;6.27;;;24.90;91.90;;;;;;5109006;28;20438;-62
2021/09/12 09:20:28;;;;;;;6.30;5.70;;;24.90;91.70;;;;;;5109715;28;20769;-62
2021/09/12 09:22:57;;;;;;;7.70;5.87;;;24.90;91.80;;;;;;5108259;28;20434;-62
2021/09/12 09:25:27;;;;;;;6.43;5.80;;;24.80;91.70;;;;;;5109481;28;20395;-63
2021/09/12 09:28:03;;;;;;;6.20;5.27;;;24.80;91.80;;;;;;5108550;28;20424;-62
2021/09/12 09:30:51;;;;;;;6.43;5.40;;;24.80;91.80;;;;;;5109111;28;20428;-62
2021/09/12 09:33:28;;;;;;;6.90;5.00;;;24.80;91.70;;;;;;5110941;28;20807;-62
2021/09/12 09:36:02;;;;;;;7.50;5.90;;;24.70;91.60;;;;;;5111012;28;20903;-63
2021/09/12 09:38:30;;;;;;;6.80;5.80;;;24.70;91.70;;;;;;5109526;28;20402;-62
2021/09/12 09:41:08;;;;;;;5.37;4.87;;;24.80;91.60;;;;;;5110906;28;20421;-62
2021/09/12 09:43:46;;;;;;;6.93;5.77;;;24.90;91.50;;;;;;5109608;28;20419;-62
2021/09/12 09:46:31;;;;;;;6.13;5.37;;;24.90;91.40;;;;;;5111133;28;20461;-62
2021/09/12 09:48:58;;;;;;;7.50;5.60;;;24.90;91.30;;;;;;5110597;28;20410;-63
2021/09/12 09:51:25;;;;;;;6.27;5.50;;;24.90;91.30;;;;;;5108814;28;20559;-63
2021/09/12 09:53:51;;;;;;;6.93;6.23;;;24.90;91.30;;;;;;5110505;28;20408;-63
2021/09/12 09:56:17;;;;;;;6.60;5.90;;;25.00;91.30;;;;;;5110674;28;20451;-62
2021/09/12 09:58:43;;;;;;;5.20;4.70;;;24.90;91.20;;;;;;5110241;28;20559;-62
2021/09/12 10:01:10;;;;;;;6.23;5.37;;;25.00;90.50;;;;;;5109128;28;20455;-63
2021/09/12 10:03:36;;;;;;;4.83;4.43;;;25.00;91.10;;;;;;5097840;28;20399;-64
2021/09/12 10:06:02;;;;;;;5.90;5.30;;;25.00;90.60;;;;;;5096795;28;20816;-62
2021/09/12 10:08:28;;;;;;;7.33;4.80;;;25.00;90.80;;;;;;5096635;28;20404;-65
2021/09/12 10:10:54;;;;;;;5.10;4.50;;;25.00;90.90;;;;;;5096608;28;20658;-62
2021/09/12 10:13:23;;;;;;;5.30;4.40;;;25.00;90.80;;;;;;5096621;28;20635;-63
2021/09/12 10:15:52;;;;;;;5.00;4.00;;;25.10;90.80;;;;;;5096281;28;20445;-62
2021/09/12 10:18:24;;;;;;;4.43;4.03;;;25.10;90.70;;;;;;5096345;28;20404;-65
2021/09/12 10:20:50;;;;;;;4.97;4.23;;;25.10;88.20;;;;;;5095154;28;20428;-62
2021/09/12 10:23:16;;;;;;;4.10;3.80;;;25.10;87.60;;;;;;5094181;28;20812;-62
2021/09/12 10:25:47;;;;;;;6.97;5.10;;;25.20;89.40;;;;;;5094038;28;20438;-63
2021/09/12 10:28:25;;;;;;;4.53;3.80;;;25.20;84.20;;;;;;5092799;28;20175;-63
2021/09/12 10:30:51;;;;;;;4.70;4.30;;;25.30;86.60;;;;;;5094088;28;20959;-63
2021/09/12 10:33:19;;;;;;;5.30;4.50;;;25.30;89.00;;;;;;5094007;28;20451;-63
2021/09/12 10:35:59;;;;;;;5.23;4.73;;;25.40;88.30;;;;;;5094045;28;20448;-62
2021/09/12 10:38:39;;;;;;;4.03;3.73;;;25.40;86.90;;;;;;5095001;28;20825;-65
2021/09/12 10:41:04;;;;;;;6.07;4.00;;;25.50;84.90;;;;;;5093668;28;20437;-63
2021/09/12 10:43:30;;;;;;;7.00;5.23;;;25.60;87.60;;;;;;5093923;28;20479;-64
2021/09/12 10:46:01;;;;;;;6.10;4.30;;;25.60;87.20;;;;;;5093892;28;20242;-62
2021/09/12 10:48:29;;;;;;;6.90;4.27;;;25.70;85.90;;;;;;5093710;28;20195;-64
2021/09/12 10:50:56;;;;;;;5.53;4.27;;;25.70;87.80;;;;;;5093510;28;20833;-62
2021/09/12 10:53:47;;;;;;;5.87;5.33;;;25.80;84.90;;;;;;5094593;28;20410;-64
2021/09/12 10:56:18;;;;;;;6.37;4.47;;;25.80;86.80;;;;;;5094534;28;20796;-63
2021/09/12 10:58:48;;;;;;;6.37;4.60;;;25.90;86.10;;;;;;5095630;28;20449;-63
2021/09/12 11:01:26;;;;;;;4.73;4.10;;;25.90;87.80;;;;;;5095879;28;20447;-64
2021/09/12 11:04:01;;;;;;;5.13;4.23;;;25.90;84.60;;;;;;5095592;28;20392;-62
2021/09/12 11:06:39;;;;;;;16.07;5.53;;;25.90;86.40;;;;;;5094060;28;20539;-63
2021/09/12 11:09:15;;;;;;;8.50;5.40;;;26.00;86.50;;;;;;5095608;28;20745;-65
2021/09/12 11:11:41;;;;;;;7.40;5.40;;;26.00;87.70;;;;;;5094143;28;20487;-65
2021/09/12 11:14:08;;;;;;;5.27;4.57;;;26.00;86.50;;;;;;5094467;28;20409;-64
2021/09/12 11:16:33;;;;;;;4.60;4.20;;;26.00;87.60;;;;;;5095629;28;20705;-62
2021/09/12 11:19:02;;;;;;;6.00;4.90;;;26.10;87.00;;;;;;5095269;28;20447;-64
2021/09/12 11:21:34;;;;;;;4.90;4.40;;;26.00;87.50;;;;;;5095417;28;20199;-62
2021/09/12 11:24:24;;;;;;;5.10;4.70;;;26.10;87.40;;;;;;5095208;28;20405;-63
2021/09/12 11:27:00;;;;;;;5.50;5.00;;;26.10;87.70;;;;;;5095486;28;20795;-63
2021/09/12 11:29:40;;;;;;;6.77;5.30;;;26.10;87.60;;;;;;5094115;28;20397;-62
2021/09/12 11:32:10;;;;;;;4.77;4.37;;;26.10;87.00;;;;;;5091556;28;20484;-64
2021/09/12 11:34:38;;;;;;;4.63;4.20;;;26.10;87.40;;;;;;5092827;28;20442;-62
2021/09/12 11:37:05;;;;;;;6.60;4.27;;;26.10;87.40;;;;;;5093120;28;20790;-62
2021/09/12 11:39:33;;;;;;;4.77;4.27;;;26.10;87.80;;;;;;5095698;28;20951;-63
2021/09/12 11:42:01;;;;;;;5.27;4.77;;;26.00;87.60;;;;;;5092165;28;20458;-63
2021/09/12 11:44:41;;;;;;;5.43;4.93;;;26.10;84.90;;;;;;5092391;28;20413;-64
2021/09/12 11:47:08;;;;;;;5.43;4.50;;;26.10;87.10;;;;;;5092404;28;20440;-64
2021/09/12 11:49:34;;;;;;;4.80;4.40;;;26.20;86.40;;;;;;5093321;28;20396;-62
2021/09/12 11:52:00;;;;;;;5.07;4.57;;;26.10;87.00;;;;;;5093829;28;20537;-62
2021/09/12 11:54:27;;;;;;;4.57;3.90;;;26.20;86.50;;;;;;5094598;28;20217;-63
2021/09/12 11:56:56;;;;;;;5.50;5.00;;;26.20;83.80;;;;;;5095011;28;20191;-63
2021/09/12 11:59:23;;;;;;;4.90;4.43;;;26.20;84.60;;;;;;5093624;28;20407;-63
2021/09/12 12:01:50;;;;;;;5.70;4.53;;;26.30;85.20;;;;;;5092660;28;20444;-63
2021/09/12 12:04:16;;;;;;;4.87;4.47;;;26.20;86.00;;;;;;5092291;28;20445;-63
2021/09/12 12:06:46;;;;;;;4.17;3.77;;;26.20;86.50;;;;;;5092440;28;20823;-64
2021/09/12 12:09:15;;;;;;;4.80;4.23;;;26.20;86.50;;;;;;5092463;28;20170;-63
2021/09/12 12:11:45;;;;;;;5.47;4.87;;;26.30;84.30;;;;;;5092378;28;20529;-63
2021/09/12 12:14:24;;;;;;;5.70;5.10;;;26.30;84.80;;;;;;5092551;28;20416;-62
2021/09/12 12:16:54;;;;;;;5.50;4.30;;;26.30;85.20;;;;;;5094547;28;20447;-65
2021/09/12 12:19:21;;;;;;;4.87;4.27;;;26.30;85.60;;;;;;5094219;28;20403;-62
2021/09/12 12:21:49;;;;;;;4.90;4.40;;;26.30;86.10;;;;;;5092858;28;21051;-65
2021/09/12 12:24:21;;;;;;;7.10;4.23;;;26.20;86.20;;;;;;5092931;28;20487;-64
2021/09/12 12:26:52;;;;;;;4.70;4.20;;;26.30;86.70;;;;;;5094173;28;20455;-62
2021/09/12 12:29:28;;;;;;;4.73;4.33;;;26.30;86.40;;;;;;5093964;28;20407;-62
2021/09/12 12:31:55;;;;;;;5.40;4.10;;;26.40;83.40;;;;;;5094222;28;20479;-62
2021/09/12 12:34:39;;;;;;;5.27;4.77;;;26.40;85.10;;;;;;5094268;28;20407;-62
2021/09/12 12:37:07;;;;;;;5.10;4.60;;;26.40;84.50;;;;;;5094532;28;20937;-62
2021/09/12 12:39:33;;;;;;;4.83;4.23;;;26.40;85.50;;;;;;5093944;28;20960;-62
2021/09/12 12:41:59;;;;;;;6.33;4.73;;;26.40;84.80;;;;;;5094246;28;20487;-62
2021/09/12 12:44:25;;;;;;;5.27;4.77;;;26.40;85.20;;;;;;5093889;28;20453;-62